createdAt,value
2023-04-17T00:04:10.742Z,7.44
2023-04-17T00:09:13.941Z,7.45
2023-04-17T00:14:18.200Z,7.43
2023-04-17T00:19:20.896Z,7.44
2023-04-17T00:24:23.575Z,7.39
2023-04-17T00:29:27.647Z,7.34
2023-04-17T00:34:30.441Z,7.34
2023-04-17T00:39:35.268Z,7.29
2023-04-17T00:44:39.350Z,7.33
2023-04-17T00:49:42.231Z,7.32
2023-04-17T00:54:45.087Z,7.29
2023-04-17T00:59:49.538Z,7.33
2023-04-17T01:04:52.270Z,7.33
2023-04-17T01:09:55.332Z,7.32
2023-04-17T01:14:59.383Z,7.29
2023-04-17T01:20:06.219Z,7.29
2023-04-17T01:25:10.740Z,7.29
2023-04-17T01:30:14.598Z,7.32
2023-04-17T01:35:17.445Z,7.24
2023-04-17T01:40:21.660Z,7.29
2023-04-17T01:45:25.375Z,7.28
2023-04-17T01:50:28.674Z,7.30
2023-04-17T01:55:32.656Z,7.29
2023-04-17T02:00:37.289Z,7.28
2023-04-17T02:05:39.881Z,7.29
2023-04-17T02:10:44.474Z,7.28
2023-04-17T02:15:47.153Z,7.31
2023-04-17T02:20:51.817Z,7.31
2023-04-17T02:25:56.124Z,7.35
2023-04-17T02:30:58.836Z,7.35
2023-04-17T02:36:01.546Z,7.35
2023-04-17T02:41:06.352Z,7.34
2023-04-17T02:46:10.508Z,7.36
2023-04-17T02:51:13.280Z,7.39
2023-04-17T02:56:17.583Z,7.42
2023-04-17T03:01:21.544Z,7.39
2023-04-17T03:06:24.910Z,7.37
2023-04-17T03:11:29.332Z,7.42
2023-04-17T03:16:32.024Z,7.44
2023-04-17T03:21:34.883Z,7.41
2023-04-17T03:26:40.912Z,7.46
2023-04-17T03:31:43.555Z,7.43
2023-04-17T03:36:46.654Z,7.43
2023-04-17T03:41:50.758Z,7.41
2023-04-17T03:46:53.576Z,7.42
2023-04-17T03:51:57.468Z,7.44
2023-04-17T03:57:01.505Z,7.40
2023-04-17T04:02:04.331Z,7.42
2023-04-17T04:07:07.122Z,7.46
2023-04-17T04:12:11.571Z,7.49
2023-04-17T04:17:14.236Z,7.48
2023-04-17T04:22:18.558Z,7.43
2023-04-17T04:27:23.090Z,7.41
2023-04-17T04:32:27.948Z,7.43
2023-04-17T04:37:31.800Z,7.49
2023-04-17T04:42:35.816Z,7.50
2023-04-17T04:47:41.952Z,7.50
2023-04-17T04:52:44.705Z,7.46
2023-04-17T04:57:53.472Z,7.50
2023-04-17T05:02:56.407Z,7.58
2023-04-17T05:07:59.280Z,7.59
2023-04-17T05:13:04.388Z,7.60
2023-04-17T05:18:07.144Z,7.63
2023-04-17T05:23:11.056Z,7.68
2023-04-17T05:28:16.777Z,7.74
2023-04-17T05:33:19.890Z,7.77
2023-04-17T05:38:23.684Z,7.80
2023-04-17T05:43:27.699Z,7.83
2023-04-17T05:48:30.522Z,7.86
2023-04-17T05:53:33.255Z,7.85
2023-04-17T05:58:37.356Z,7.92
2023-04-17T06:03:40.154Z,7.90
2023-04-17T06:08:44.502Z,7.98
2023-04-17T06:13:48.817Z,8.00
2023-04-17T06:18:51.557Z,8.01
2023-04-17T06:23:54.217Z,8.05
2023-04-17T06:28:58.414Z,8.07
2023-04-17T06:34:01.140Z,8.12
2023-04-17T06:39:03.884Z,8.22
2023-04-17T06:44:08.177Z,8.23
2023-04-17T06:49:11.042Z,8.45
2023-04-17T06:54:14.084Z,8.57
2023-04-17T06:59:18.282Z,8.74
2023-04-17T07:04:21.736Z,8.76
2023-04-17T07:09:25.166Z,8.98
2023-04-17T07:14:33.547Z,9.04
2023-04-17T07:19:36.252Z,9.03
2023-04-17T07:24:38.991Z,9.11
2023-04-17T07:29:44.234Z,9.41
2023-04-17T07:34:47.576Z,9.33
2023-04-17T07:39:51.114Z,9.63
2023-04-17T07:44:55.227Z,9.58
2023-04-17T07:50:16.060Z,9.63
2023-04-17T07:55:18.809Z,9.71
2023-04-17T08:00:23.484Z,9.95
2023-04-17T08:05:26.325Z,10.08
2023-04-17T08:10:29.427Z,10.39
2023-04-17T08:15:33.589Z,10.45
2023-04-17T08:20:36.727Z,10.55
2023-04-17T08:25:39.362Z,10.72
2023-04-17T08:30:43.402Z,11.61
2023-04-17T08:35:46.588Z,11.85
2023-04-17T08:40:52.286Z,11.99
2023-04-17T08:45:56.905Z,12.04
2023-04-17T08:50:59.622Z,12.23
2023-04-17T08:56:06.866Z,12.54
2023-04-17T09:01:15.827Z,13.36
2023-04-17T09:06:19.222Z,13.59
2023-04-17T09:11:21.959Z,13.57
2023-04-17T09:16:26.064Z,13.68
2023-04-17T09:21:29.944Z,14.09
2023-04-17T09:26:34.146Z,14.32
2023-04-17T09:31:40.576Z,14.61
2023-04-17T09:36:44.253Z,15.02
2023-04-17T09:41:48.127Z,15.78
2023-04-17T09:46:54.056Z,15.72
2023-04-17T09:51:58.711Z,16.12
2023-04-17T09:57:03.873Z,15.64
2023-04-17T10:02:11.633Z,16.00
2023-04-17T10:07:16.671Z,16.43
2023-04-17T10:12:21.791Z,15.88
2023-04-17T10:17:28.606Z,16.75
2023-04-17T10:22:34.798Z,17.18
2023-04-17T10:27:45.426Z,16.98
2023-04-17T10:33:36.222Z,17.46
2023-04-17T10:38:38.767Z,17.28
2023-04-17T10:43:43.315Z,17.17
2023-04-17T10:48:52.586Z,17.18
2023-04-17T10:53:57.789Z,17.13
2023-04-17T10:59:02.446Z,17.72
2023-04-17T11:04:07.239Z,18.17
2023-04-17T11:09:12.262Z,17.74
2023-04-17T11:14:17.716Z,19.38
2023-04-17T11:19:23.576Z,20.07
2023-04-17T11:24:26.969Z,19.97
2023-04-17T11:29:32.093Z,19.35
2023-04-17T11:34:38.194Z,18.66
2023-04-17T11:39:44.150Z,18.84
2023-04-17T11:44:47.038Z,19.58
2023-04-17T11:49:52.576Z,19.48
2023-04-17T11:54:59.004Z,19.91
2023-04-17T12:00:27.506Z,19.92
2023-04-17T12:05:32.302Z,19.82
2023-04-17T12:10:39.815Z,19.84
2023-04-17T12:15:42.730Z,19.61
2023-04-17T12:20:47.556Z,19.38
2023-04-17T12:25:50.275Z,19.22
2023-04-17T12:31:14.211Z,19.12
2023-04-17T12:36:18.303Z,19.10
2023-04-17T12:41:21.891Z,18.74
2023-04-17T12:46:24.808Z,17.42
2023-04-17T12:51:29.380Z,19.48
2023-04-17T12:56:32.035Z,18.82
2023-04-17T13:01:34.821Z,17.85
2023-04-17T13:06:40.152Z,17.03
2023-04-17T13:11:42.888Z,16.23
2023-04-17T13:16:46.211Z,17.08
2023-04-17T13:21:51.756Z,17.35
2023-04-17T13:26:59.782Z,16.36
2023-04-17T13:32:02.553Z,16.21
2023-04-17T13:37:07.293Z,18.34
2023-04-17T13:42:10.401Z,20.33
2023-04-17T13:47:17.534Z,19.41
2023-04-17T13:52:25.876Z,18.67
2023-04-17T13:57:54.296Z,19.46
2023-04-17T14:03:00.211Z,20.16
2023-04-17T14:08:04.519Z,20.24
2023-04-17T14:13:07.484Z,20.27
2023-04-17T14:18:17.411Z,19.79
2023-04-17T14:23:29.871Z,19.95
2023-04-17T14:28:45.566Z,19.60
2023-04-17T14:33:58.728Z,20.84
2023-04-17T14:39:05.655Z,20.71
2023-04-17T14:44:08.970Z,17.75
2023-04-17T14:49:19.440Z,16.48
2023-04-17T14:54:28.374Z,15.65
2023-04-17T14:59:31.115Z,15.40
2023-04-17T15:04:37.128Z,15.19
2023-04-17T15:09:46.429Z,16.92
2023-04-17T15:14:51.013Z,17.90
2023-04-17T15:19:55.759Z,18.35
2023-04-17T15:24:59.860Z,18.18
2023-04-17T15:30:05.006Z,17.07
2023-04-17T15:35:08.354Z,16.82
2023-04-17T15:40:13.249Z,18.09
2023-04-17T15:45:21.174Z,18.25
2023-04-17T15:50:25.962Z,17.99
2023-04-17T15:55:30.188Z,17.55
2023-04-17T16:00:34.069Z,18.43
2023-04-17T16:05:36.875Z,19.28
2023-04-17T16:10:40.892Z,19.21
2023-04-17T16:15:43.655Z,17.83
2023-04-17T16:20:46.427Z,16.65
2023-04-17T16:25:51.317Z,17.49
2023-04-17T16:30:54.046Z,17.78
2023-04-17T16:35:57.242Z,17.82
2023-04-17T16:41:02.000Z,17.71
2023-04-17T16:46:14.362Z,17.36
2023-04-17T16:51:25.056Z,17.83
2023-04-17T16:56:29.069Z,17.54
2023-04-17T17:01:33.222Z,17.68
2023-04-17T17:06:39.105Z,16.96
2023-04-17T17:11:43.404Z,16.81
2023-04-17T17:16:50.090Z,16.00
2023-04-17T17:21:55.685Z,15.16
2023-04-17T17:26:59.681Z,14.64
2023-04-17T17:32:06.092Z,14.32
2023-04-17T17:37:09.160Z,14.06
2023-04-17T17:42:36.367Z,13.77
2023-04-17T17:47:39.924Z,13.54
2023-04-17T17:52:42.730Z,13.43
2023-04-17T17:57:49.701Z,13.26
2023-04-17T18:02:53.048Z,13.04
2023-04-17T18:07:55.911Z,12.79
2023-04-17T18:12:59.990Z,12.63
2023-04-17T18:18:03.359Z,12.46
2023-04-17T18:23:07.274Z,12.24
2023-04-17T18:28:14.081Z,12.04
2023-04-17T18:33:17.309Z,11.88
2023-04-17T18:38:22.209Z,11.71
2023-04-17T18:43:27.479Z,11.55
2023-04-17T18:48:30.166Z,11.33
2023-04-17T18:53:33.671Z,11.17
2023-04-17T18:58:40.769Z,10.96
2023-04-17T19:03:43.539Z,10.86
2023-04-17T19:08:46.280Z,10.72
2023-04-17T19:13:50.454Z,10.60
2023-04-17T19:18:53.212Z,10.54
2023-04-17T19:23:56.307Z,10.44
2023-04-17T19:29:03.076Z,10.22
2023-04-17T19:34:06.967Z,10.19
2023-04-17T19:39:09.730Z,10.08
2023-04-17T19:44:14.342Z,9.94
2023-04-17T19:49:17.107Z,9.82
2023-04-17T19:54:19.967Z,9.78
2023-04-17T19:59:24.621Z,9.77
2023-04-17T20:04:27.560Z,9.71
2023-04-17T20:09:31.648Z,9.64
2023-04-17T20:14:36.349Z,9.53
2023-04-17T20:19:39.025Z,9.52
2023-04-17T20:24:41.768Z,9.49
2023-04-17T20:29:46.254Z,9.49
2023-04-17T20:34:49.169Z,9.49
2023-04-17T20:39:52.903Z,9.36
2023-04-17T20:44:57.193Z,9.12
2023-04-17T20:50:04.114Z,8.87
2023-04-17T20:55:10.224Z,8.71
2023-04-17T21:00:15.883Z,8.51
2023-04-17T21:05:19.292Z,8.45
2023-04-17T21:10:21.923Z,8.30
2023-04-17T21:15:25.932Z,8.18
2023-04-17T21:20:28.778Z,8.08
2023-04-17T21:25:31.502Z,7.99
2023-04-17T21:30:37.063Z,7.98
2023-04-17T21:35:40.926Z,7.92
2023-04-17T21:45:51.792Z,7.82
2023-04-17T21:50:56.659Z,7.89
2023-04-17T21:55:59.496Z,7.93
2023-04-17T22:01:04.571Z,7.85
2023-04-17T22:06:07.811Z,7.90
2023-04-17T22:11:10.613Z,7.85
2023-04-17T22:16:14.636Z,7.75
2023-04-17T22:21:35.422Z,7.61
2023-04-17T22:26:38.091Z,7.39
2023-04-17T22:31:42.242Z,7.28
2023-04-17T22:36:44.896Z,7.11
2023-04-17T22:41:47.568Z,7.01
2023-04-17T22:46:51.792Z,6.90
2023-04-17T22:51:54.759Z,6.69
2023-04-17T22:56:57.625Z,6.54
2023-04-17T23:02:04.378Z,6.45
2023-04-17T23:07:11.608Z,6.29
2023-04-17T23:12:14.188Z,6.15
2023-04-17T23:17:19.605Z,6.01
2023-04-17T23:22:22.503Z,6.07
2023-04-17T23:27:25.885Z,5.99
2023-04-17T23:32:32.285Z,5.96
2023-04-17T23:37:35.799Z,5.85
2023-04-17T23:42:38.765Z,5.70
2023-04-17T23:47:44.421Z,5.62
2023-04-17T23:52:47.520Z,5.48
2023-04-17T23:58:11.462Z,5.45
